sensor_id;sensor_type;location;lat;lon;timestamp;temperature;humidity
22908;DHT22;11620;50.050;8.690;2023-12-20T00:00:46;2.50;99.90
22908;DHT22;11620;50.050;8.690;2023-12-20T00:03:32;2.50;99.90
22908;DHT22;11620;50.050;8.690;2023-12-20T00:06:19;2.50;99.90
22908;DHT22;11620;50.050;8.690;2023-12-20T00:09:05;2.40;99.90
22908;DHT22;11620;50.050;8.690;2023-12-20T00:11:51;2.50;99.90
22908;DHT22;11620;50.050;8.690;2023-12-20T00:14:38;2.40;99.90
22908;DHT22;11620;50.050;8.690;2023-12-20T00:17:24;2.40;99.90
22908;DHT22;11620;50.050;8.690;2023-12-20T00:20:10;2.40;99.90
22908;DHT22;11620;50.050;8.690;2023-12-20T00:22:57;2.40;99.90
22908;DHT22;11620;50.050;8.690;2023-12-20T00:25:44;2.50;99.90
22908;DHT22;11620;50.050;8.690;2023-12-20T00:28:30;2.50;99.90
22908;DHT22;11620;50.050;8.690;2023-12-20T00:31:16;2.50;99.90
22908;DHT22;11620;50.050;8.690;2023-12-20T00:34:03;2.40;99.90
22908;DHT22;11620;50.050;8.690;2023-12-20T00:36:49;2.50;99.90
22908;DHT22;11620;50.050;8.690;2023-12-20T00:39:35;2.50;99.90
22908;DHT22;11620;50.050;8.690;2023-12-20T00:42:22;2.50;99.90
22908;DHT22;11620;50.050;8.690;2023-12-20T00:45:08;2.50;99.90
22908;DHT22;11620;50.050;8.690;2023-12-20T00:47:54;2.50;99.90
22908;DHT22;11620;50.050;8.690;2023-12-20T00:50:41;2.50;99.90
22908;DHT22;11620;50.050;8.690;2023-12-20T00:53:27;2.40;99.90
22908;DHT22;11620;50.050;8.690;2023-12-20T00:56:13;2.40;99.90
22908;DHT22;11620;50.050;8.690;2023-12-20T00:59:00;2.40;99.90
22908;DHT22;11620;50.050;8.690;2023-12-20T01:01:46;2.50;99.90
22908;DHT22;11620;50.050;8.690;2023-12-20T01:04:33;2.50;99.90
22908;DHT22;11620;50.050;8.690;2023-12-20T01:07:19;2.50;99.90
22908;DHT22;11620;50.050;8.690;2023-12-20T01:10:05;2.30;99.90
22908;DHT22;11620;50.050;8.690;2023-12-20T01:12:52;2.30;99.90
22908;DHT22;11620;50.050;8.690;2023-12-20T01:15:38;2.30;99.90
22908;DHT22;11620;50.050;8.690;2023-12-20T01:18:24;2.40;99.90
22908;DHT22;11620;50.050;8.690;2023-12-20T01:21:11;2.40;99.90
22908;DHT22;11620;50.050;8.690;2023-12-20T01:23:57;2.40;99.90
22908;DHT22;11620;50.050;8.690;2023-12-20T01:26:43;2.40;99.90
22908;DHT22;11620;50.050;8.690;2023-12-20T01:29:30;2.30;99.90
22908;DHT22;11620;50.050;8.690;2023-12-20T01:32:16;2.40;99.90
22908;DHT22;11620;50.050;8.690;2023-12-20T01:35:02;2.40;99.90
22908;DHT22;11620;50.050;8.690;2023-12-20T01:37:49;2.40;99.90
22908;DHT22;11620;50.050;8.690;2023-12-20T01:40:35;2.40;99.90
22908;DHT22;11620;50.050;8.690;2023-12-20T01:43:21;2.30;99.90
22908;DHT22;11620;50.050;8.690;2023-12-20T01:46:08;2.40;99.90
22908;DHT22;11620;50.050;8.690;2023-12-20T01:48:54;2.30;99.90
22908;DHT22;11620;50.050;8.690;2023-12-20T01:51:40;2.30;99.90
22908;DHT22;11620;50.050;8.690;2023-12-20T01:54:27;2.30;99.90
22908;DHT22;11620;50.050;8.690;2023-12-20T01:57:13;2.20;99.90
22908;DHT22;11620;50.050;8.690;2023-12-20T02:00:00;2.20;99.90
22908;DHT22;11620;50.050;8.690;2023-12-20T02:02:46;2.20;99.90
22908;DHT22;11620;50.050;8.690;2023-12-20T02:05:34;2.20;99.90
22908;DHT22;11620;50.050;8.690;2023-12-20T02:08:21;2.30;99.90
22908;DHT22;11620;50.050;8.690;2023-12-20T02:11:07;2.30;99.90
22908;DHT22;11620;50.050;8.690;2023-12-20T02:13:54;2.30;99.90
22908;DHT22;11620;50.050;8.690;2023-12-20T02:16:40;2.40;99.90
22908;DHT22;11620;50.050;8.690;2023-12-20T02:19:27;2.30;99.90
22908;DHT22;11620;50.050;8.690;2023-12-20T02:22:13;2.40;99.90
22908;DHT22;11620;50.050;8.690;2023-12-20T02:24:59;2.40;99.90
22908;DHT22;11620;50.050;8.690;2023-12-20T02:27:46;2.30;99.90
22908;DHT22;11620;50.050;8.690;2023-12-20T02:30:32;2.40;99.90
22908;DHT22;11620;50.050;8.690;2023-12-20T02:33:19;2.30;99.90
22908;DHT22;11620;50.050;8.690;2023-12-20T02:36:06;2.30;99.90
22908;DHT22;11620;50.050;8.690;2023-12-20T02:38:53;2.40;99.90
22908;DHT22;11620;50.050;8.690;2023-12-20T02:41:39;2.30;99.90
22908;DHT22;11620;50.050;8.690;2023-12-20T02:44:25;2.30;99.90
22908;DHT22;11620;50.050;8.690;2023-12-20T02:47:12;2.30;99.90
22908;DHT22;11620;50.050;8.690;2023-12-20T02:49:58;2.30;99.90
22908;DHT22;11620;50.050;8.690;2023-12-20T02:52:45;2.30;99.90
22908;DHT22;11620;50.050;8.690;2023-12-20T02:55:31;2.30;99.90
22908;DHT22;11620;50.050;8.690;2023-12-20T02:58:18;2.40;99.90
22908;DHT22;11620;50.050;8.690;2023-12-20T03:01:04;2.40;99.90
22908;DHT22;11620;50.050;8.690;2023-12-20T03:03:51;2.50;99.90
22908;DHT22;11620;50.050;8.690;2023-12-20T03:06:37;2.40;99.90
22908;DHT22;11620;50.050;8.690;2023-12-20T03:09:24;2.40;99.90
22908;DHT22;11620;50.050;8.690;2023-12-20T03:12:10;2.50;99.90
22908;DHT22;11620;50.050;8.690;2023-12-20T03:14:57;2.50;99.90
22908;DHT22;11620;50.050;8.690;2023-12-20T03:17:43;2.40;99.90
22908;DHT22;11620;50.050;8.690;2023-12-20T03:20:29;2.40;99.90
22908;DHT22;11620;50.050;8.690;2023-12-20T03:23:19;2.40;99.90
22908;DHT22;11620;50.050;8.690;2023-12-20T03:26:08;2.50;99.90
22908;DHT22;11620;50.050;8.690;2023-12-20T03:28:54;2.50;99.90
22908;DHT22;11620;50.050;8.690;2023-12-20T03:31:41;2.40;99.90
22908;DHT22;11620;50.050;8.690;2023-12-20T03:34:27;2.30;99.90
22908;DHT22;11620;50.050;8.690;2023-12-20T03:37:15;2.50;99.90
22908;DHT22;11620;50.050;8.690;2023-12-20T03:40:01;2.50;99.90
22908;DHT22;11620;50.050;8.690;2023-12-20T03:42:48;2.60;99.90
22908;DHT22;11620;50.050;8.690;2023-12-20T03:45:34;2.60;99.90
22908;DHT22;11620;50.050;8.690;2023-12-20T03:48:20;2.60;99.90
22908;DHT22;11620;50.050;8.690;2023-12-20T03:51:07;2.40;99.90
22908;DHT22;11620;50.050;8.690;2023-12-20T03:53:53;2.50;99.90
22908;DHT22;11620;50.050;8.690;2023-12-20T03:56:39;2.40;99.90
22908;DHT22;11620;50.050;8.690;2023-12-20T03:59:26;2.40;99.90
22908;DHT22;11620;50.050;8.690;2023-12-20T04:02:12;2.40;99.90
22908;DHT22;11620;50.050;8.690;2023-12-20T04:04:58;2.50;99.90
22908;DHT22;11620;50.050;8.690;2023-12-20T04:07:44;2.60;99.90
22908;DHT22;11620;50.050;8.690;2023-12-20T04:10:31;2.60;99.90
22908;DHT22;11620;50.050;8.690;2023-12-20T04:13:17;2.60;99.90
22908;DHT22;11620;50.050;8.690;2023-12-20T04:16:04;2.60;99.90
22908;DHT22;11620;50.050;8.690;2023-12-20T04:18:50;2.70;99.90
22908;DHT22;11620;50.050;8.690;2023-12-20T04:21:37;2.70;99.90
22908;DHT22;11620;50.050;8.690;2023-12-20T04:24:23;2.70;99.90
22908;DHT22;11620;50.050;8.690;2023-12-20T04:27:09;2.70;99.90
22908;DHT22;11620;50.050;8.690;2023-12-20T04:29:56;2.70;99.90
22908;DHT22;11620;50.050;8.690;2023-12-20T04:32:42;2.70;99.90
22908;DHT22;11620;50.050;8.690;2023-12-20T04:35:28;2.70;99.90
22908;DHT22;11620;50.050;8.690;2023-12-20T04:38:15;2.70;99.90
22908;DHT22;11620;50.050;8.690;2023-12-20T04:41:01;2.70;99.90
22908;DHT22;11620;50.050;8.690;2023-12-20T04:43:48;2.80;99.90
22908;DHT22;11620;50.050;8.690;2023-12-20T04:46:34;2.90;99.90
22908;DHT22;11620;50.050;8.690;2023-12-20T04:49:20;2.80;99.90
22908;DHT22;11620;50.050;8.690;2023-12-20T04:52:06;2.80;99.90
22908;DHT22;11620;50.050;8.690;2023-12-20T04:54:53;2.80;99.90
22908;DHT22;11620;50.050;8.690;2023-12-20T04:57:39;2.90;99.90
22908;DHT22;11620;50.050;8.690;2023-12-20T05:00:25;2.80;99.90
22908;DHT22;11620;50.050;8.690;2023-12-20T05:03:12;2.90;99.90
22908;DHT22;11620;50.050;8.690;2023-12-20T05:05:58;2.90;99.90
22908;DHT22;11620;50.050;8.690;2023-12-20T05:08:44;2.80;99.90
22908;DHT22;11620;50.050;8.690;2023-12-20T05:11:31;2.80;99.90
22908;DHT22;11620;50.050;8.690;2023-12-20T05:14:17;2.80;99.90
22908;DHT22;11620;50.050;8.690;2023-12-20T05:17:04;2.70;99.90
22908;DHT22;11620;50.050;8.690;2023-12-20T05:19:50;2.70;99.90
22908;DHT22;11620;50.050;8.690;2023-12-20T05:22:36;2.80;99.90
22908;DHT22;11620;50.050;8.690;2023-12-20T05:25:22;2.80;99.90
22908;DHT22;11620;50.050;8.690;2023-12-20T05:28:09;2.90;99.90
22908;DHT22;11620;50.050;8.690;2023-12-20T05:30:55;2.80;99.90
22908;DHT22;11620;50.050;8.690;2023-12-20T05:33:41;2.90;99.90
22908;DHT22;11620;50.050;8.690;2023-12-20T05:36:28;2.90;99.90
22908;DHT22;11620;50.050;8.690;2023-12-20T05:39:14;2.80;99.90
22908;DHT22;11620;50.050;8.690;2023-12-20T05:42:00;2.70;99.90
22908;DHT22;11620;50.050;8.690;2023-12-20T05:44:47;2.80;99.90
22908;DHT22;11620;50.050;8.690;2023-12-20T05:47:33;2.80;99.90
22908;DHT22;11620;50.050;8.690;2023-12-20T05:50:19;2.90;99.90
22908;DHT22;11620;50.050;8.690;2023-12-20T05:53:07;2.80;99.90
22908;DHT22;11620;50.050;8.690;2023-12-20T05:55:53;2.70;99.90
22908;DHT22;11620;50.050;8.690;2023-12-20T05:58:41;2.70;99.90
22908;DHT22;11620;50.050;8.690;2023-12-20T06:01:27;2.70;99.90
22908;DHT22;11620;50.050;8.690;2023-12-20T06:04:13;2.70;99.90
22908;DHT22;11620;50.050;8.690;2023-12-20T06:07:00;2.70;99.90
22908;DHT22;11620;50.050;8.690;2023-12-20T06:09:46;2.80;99.90
22908;DHT22;11620;50.050;8.690;2023-12-20T06:12:33;2.80;99.90
22908;DHT22;11620;50.050;8.690;2023-12-20T06:15:21;2.80;99.90
22908;DHT22;11620;50.050;8.690;2023-12-20T06:18:08;2.70;99.90
22908;DHT22;11620;50.050;8.690;2023-12-20T06:20:55;2.70;99.90
22908;DHT22;11620;50.050;8.690;2023-12-20T06:23:41;2.70;99.90
22908;DHT22;11620;50.050;8.690;2023-12-20T06:26:28;2.70;99.90
22908;DHT22;11620;50.050;8.690;2023-12-20T06:29:14;2.70;99.90
22908;DHT22;11620;50.050;8.690;2023-12-20T06:32:00;2.70;99.90
22908;DHT22;11620;50.050;8.690;2023-12-20T06:34:47;2.70;99.90
22908;DHT22;11620;50.050;8.690;2023-12-20T06:37:33;2.70;99.90
22908;DHT22;11620;50.050;8.690;2023-12-20T06:40:19;2.60;99.90
22908;DHT22;11620;50.050;8.690;2023-12-20T06:43:06;2.60;99.90
22908;DHT22;11620;50.050;8.690;2023-12-20T06:45:52;2.50;99.90
22908;DHT22;11620;50.050;8.690;2023-12-20T06:48:39;2.40;99.90
22908;DHT22;11620;50.050;8.690;2023-12-20T06:51:26;2.50;99.90
22908;DHT22;11620;50.050;8.690;2023-12-20T06:54:12;2.40;99.90
22908;DHT22;11620;50.050;8.690;2023-12-20T06:56:59;2.40;99.90
22908;DHT22;11620;50.050;8.690;2023-12-20T06:59:45;2.40;99.90
22908;DHT22;11620;50.050;8.690;2023-12-20T07:02:31;2.30;99.90
22908;DHT22;11620;50.050;8.690;2023-12-20T07:05:17;2.20;99.90
22908;DHT22;11620;50.050;8.690;2023-12-20T07:08:06;2.20;99.90
22908;DHT22;11620;50.050;8.690;2023-12-20T07:10:52;2.20;99.90
22908;DHT22;11620;50.050;8.690;2023-12-20T07:13:39;2.10;99.90
22908;DHT22;11620;50.050;8.690;2023-12-20T07:16:25;2.10;99.90
22908;DHT22;11620;50.050;8.690;2023-12-20T07:19:11;2.20;99.90
22908;DHT22;11620;50.050;8.690;2023-12-20T07:21:57;2.10;99.90
22908;DHT22;11620;50.050;8.690;2023-12-20T07:24:44;2.10;99.90
22908;DHT22;11620;50.050;8.690;2023-12-20T07:27:30;2.10;99.90
22908;DHT22;11620;50.050;8.690;2023-12-20T07:30:16;2.00;99.90
22908;DHT22;11620;50.050;8.690;2023-12-20T07:33:03;2.10;99.90
22908;DHT22;11620;50.050;8.690;2023-12-20T07:35:50;2.10;99.90
22908;DHT22;11620;50.050;8.690;2023-12-20T07:38:37;2.10;99.90
22908;DHT22;11620;50.050;8.690;2023-12-20T07:41:24;2.20;99.90
22908;DHT22;11620;50.050;8.690;2023-12-20T07:44:10;2.10;99.90
22908;DHT22;11620;50.050;8.690;2023-12-20T07:46:56;2.20;99.90
22908;DHT22;11620;50.050;8.690;2023-12-20T07:49:44;2.10;99.90
22908;DHT22;11620;50.050;8.690;2023-12-20T07:52:30;2.10;99.90
22908;DHT22;11620;50.050;8.690;2023-12-20T07:55:16;2.10;99.90
22908;DHT22;11620;50.050;8.690;2023-12-20T07:58:03;2.10;99.90
22908;DHT22;11620;50.050;8.690;2023-12-20T08:00:51;2.20;99.90
22908;DHT22;11620;50.050;8.690;2023-12-20T08:03:38;2.10;99.90
22908;DHT22;11620;50.050;8.690;2023-12-20T08:06:24;2.10;99.90
22908;DHT22;11620;50.050;8.690;2023-12-20T08:09:10;2.10;99.90
22908;DHT22;11620;50.050;8.690;2023-12-20T08:11:57;2.10;99.90
22908;DHT22;11620;50.050;8.690;2023-12-20T08:14:45;2.20;99.90
22908;DHT22;11620;50.050;8.690;2023-12-20T08:17:32;2.20;99.90
22908;DHT22;11620;50.050;8.690;2023-12-20T08:20:18;2.20;99.90
22908;DHT22;11620;50.050;8.690;2023-12-20T08:23:04;2.30;99.90
22908;DHT22;11620;50.050;8.690;2023-12-20T08:25:51;2.30;99.90
22908;DHT22;11620;50.050;8.690;2023-12-20T08:28:37;2.30;99.90
22908;DHT22;11620;50.050;8.690;2023-12-20T08:31:23;2.40;99.90
22908;DHT22;11620;50.050;8.690;2023-12-20T08:34:10;2.40;99.90
22908;DHT22;11620;50.050;8.690;2023-12-20T08:36:58;2.40;99.90
22908;DHT22;11620;50.050;8.690;2023-12-20T08:39:44;2.40;99.90
22908;DHT22;11620;50.050;8.690;2023-12-20T08:42:31;2.50;99.90
22908;DHT22;11620;50.050;8.690;2023-12-20T08:45:17;2.40;99.90
22908;DHT22;11620;50.050;8.690;2023-12-20T08:48:04;2.50;99.90
22908;DHT22;11620;50.050;8.690;2023-12-20T08:50:50;2.90;99.90
22908;DHT22;11620;50.050;8.690;2023-12-20T08:53:38;3.30;99.90
22908;DHT22;11620;50.050;8.690;2023-12-20T08:56:24;3.40;99.90
22908;DHT22;11620;50.050;8.690;2023-12-20T08:59:10;3.10;99.90
22908;DHT22;11620;50.050;8.690;2023-12-20T09:01:58;2.90;99.90
22908;DHT22;11620;50.050;8.690;2023-12-20T09:04:44;2.80;99.90
22908;DHT22;11620;50.050;8.690;2023-12-20T09:07:31;2.70;99.90
22908;DHT22;11620;50.050;8.690;2023-12-20T09:10:18;2.80;99.90
22908;DHT22;11620;50.050;8.690;2023-12-20T09:13:08;2.80;99.90
22908;DHT22;11620;50.050;8.690;2023-12-20T09:15:55;2.90;99.90
22908;DHT22;11620;50.050;8.690;2023-12-20T09:18:42;2.90;99.90
22908;DHT22;11620;50.050;8.690;2023-12-20T09:21:28;2.90;99.90
22908;DHT22;11620;50.050;8.690;2023-12-20T09:24:15;2.90;99.90
22908;DHT22;11620;50.050;8.690;2023-12-20T09:27:01;2.90;99.90
22908;DHT22;11620;50.050;8.690;2023-12-20T09:29:48;3.00;99.90
22908;DHT22;11620;50.050;8.690;2023-12-20T09:32:34;3.00;99.90
22908;DHT22;11620;50.050;8.690;2023-12-20T09:35:21;3.10;99.90
22908;DHT22;11620;50.050;8.690;2023-12-20T09:38:07;3.20;99.90
22908;DHT22;11620;50.050;8.690;2023-12-20T09:40:54;3.10;99.90
22908;DHT22;11620;50.050;8.690;2023-12-20T09:43:42;3.10;99.90
22908;DHT22;11620;50.050;8.690;2023-12-20T09:46:29;3.10;99.90
22908;DHT22;11620;50.050;8.690;2023-12-20T09:49:19;3.20;99.90
22908;DHT22;11620;50.050;8.690;2023-12-20T09:52:07;3.30;99.90
22908;DHT22;11620;50.050;8.690;2023-12-20T09:54:55;3.30;99.90
22908;DHT22;11620;50.050;8.690;2023-12-20T09:57:43;3.30;99.90
22908;DHT22;11620;50.050;8.690;2023-12-20T10:00:29;3.30;99.90
22908;DHT22;11620;50.050;8.690;2023-12-20T10:03:15;3.40;99.90
22908;DHT22;11620;50.050;8.690;2023-12-20T10:06:02;3.30;99.90
22908;DHT22;11620;50.050;8.690;2023-12-20T10:08:48;3.40;99.90
22908;DHT22;11620;50.050;8.690;2023-12-20T10:11:35;3.40;99.90
22908;DHT22;11620;50.050;8.690;2023-12-20T10:14:23;3.50;99.90
22908;DHT22;11620;50.050;8.690;2023-12-20T10:17:10;3.50;99.90
22908;DHT22;11620;50.050;8.690;2023-12-20T10:19:56;3.60;99.90
22908;DHT22;11620;50.050;8.690;2023-12-20T10:22:43;3.70;99.90
22908;DHT22;11620;50.050;8.690;2023-12-20T10:25:29;3.80;99.90
22908;DHT22;11620;50.050;8.690;2023-12-20T10:28:17;3.80;99.90
22908;DHT22;11620;50.050;8.690;2023-12-20T10:31:05;3.80;99.90
22908;DHT22;11620;50.050;8.690;2023-12-20T10:33:51;3.80;99.90
22908;DHT22;11620;50.050;8.690;2023-12-20T10:36:37;3.80;99.90
22908;DHT22;11620;50.050;8.690;2023-12-20T10:39:24;3.90;99.90
22908;DHT22;11620;50.050;8.690;2023-12-20T10:42:12;4.10;99.90
22908;DHT22;11620;50.050;8.690;2023-12-20T10:45:00;4.00;99.90
22908;DHT22;11620;50.050;8.690;2023-12-20T10:47:46;4.00;99.90
22908;DHT22;11620;50.050;8.690;2023-12-20T10:50:33;4.10;99.90
22908;DHT22;11620;50.050;8.690;2023-12-20T10:53:22;4.50;99.90
22908;DHT22;11620;50.050;8.690;2023-12-20T10:56:12;4.80;99.90
22908;DHT22;11620;50.050;8.690;2023-12-20T10:59:02;4.80;99.90
22908;DHT22;11620;50.050;8.690;2023-12-20T11:01:54;4.90;99.90
22908;DHT22;11620;50.050;8.690;2023-12-20T11:04:55;5.10;99.90
22908;DHT22;11620;50.050;8.690;2023-12-20T11:07:50;5.00;99.90
22908;DHT22;11620;50.050;8.690;2023-12-20T11:10:48;4.90;99.90
22908;DHT22;11620;50.050;8.690;2023-12-20T11:13:47;5.20;99.90
22908;DHT22;11620;50.050;8.690;2023-12-20T11:16:37;5.30;99.90
22908;DHT22;11620;50.050;8.690;2023-12-20T11:19:23;5.30;99.90
22908;DHT22;11620;50.050;8.690;2023-12-20T11:22:10;5.20;99.90
22908;DHT22;11620;50.050;8.690;2023-12-20T11:25:10;5.10;99.90
22908;DHT22;11620;50.050;8.690;2023-12-20T11:28:10;5.00;99.90
22908;DHT22;11620;50.050;8.690;2023-12-20T11:30:58;4.90;99.90
22908;DHT22;11620;50.050;8.690;2023-12-20T11:33:47;4.90;99.90
22908;DHT22;11620;50.050;8.690;2023-12-20T11:36:34;5.00;99.90
22908;DHT22;11620;50.050;8.690;2023-12-20T11:39:21;4.90;99.90
22908;DHT22;11620;50.050;8.690;2023-12-20T11:42:07;5.00;99.90
22908;DHT22;11620;50.050;8.690;2023-12-20T11:44:56;4.90;99.90
22908;DHT22;11620;50.050;8.690;2023-12-20T11:47:45;4.80;99.90
22908;DHT22;11620;50.050;8.690;2023-12-20T11:50:32;4.70;99.90
22908;DHT22;11620;50.050;8.690;2023-12-20T11:53:18;4.70;99.90
22908;DHT22;11620;50.050;8.690;2023-12-20T11:56:06;4.70;99.90
22908;DHT22;11620;50.050;8.690;2023-12-20T11:58:53;4.70;99.90
22908;DHT22;11620;50.050;8.690;2023-12-20T12:01:39;4.70;99.90
22908;DHT22;11620;50.050;8.690;2023-12-20T12:04:26;4.80;99.90
22908;DHT22;11620;50.050;8.690;2023-12-20T12:07:12;4.80;99.90
22908;DHT22;11620;50.050;8.690;2023-12-20T12:09:58;4.80;99.90
22908;DHT22;11620;50.050;8.690;2023-12-20T12:12:45;4.70;99.90
22908;DHT22;11620;50.050;8.690;2023-12-20T12:15:31;4.70;99.90
22908;DHT22;11620;50.050;8.690;2023-12-20T12:18:18;4.80;99.90
22908;DHT22;11620;50.050;8.690;2023-12-20T12:21:04;4.80;99.90
22908;DHT22;11620;50.050;8.690;2023-12-20T12:23:50;4.80;99.90
22908;DHT22;11620;50.050;8.690;2023-12-20T12:26:37;4.90;99.90
22908;DHT22;11620;50.050;8.690;2023-12-20T12:29:24;4.90;99.90
22908;DHT22;11620;50.050;8.690;2023-12-20T12:32:13;4.90;99.90
22908;DHT22;11620;50.050;8.690;2023-12-20T12:35:05;4.80;99.90
22908;DHT22;11620;50.050;8.690;2023-12-20T12:37:52;4.90;99.90
22908;DHT22;11620;50.050;8.690;2023-12-20T12:40:38;4.90;99.90
22908;DHT22;11620;50.050;8.690;2023-12-20T12:43:24;4.90;99.90
22908;DHT22;11620;50.050;8.690;2023-12-20T12:46:11;4.80;99.90
22908;DHT22;11620;50.050;8.690;2023-12-20T12:48:57;4.90;99.90
22908;DHT22;11620;50.050;8.690;2023-12-20T12:51:44;4.80;99.90
22908;DHT22;11620;50.050;8.690;2023-12-20T12:54:30;4.80;99.90
22908;DHT22;11620;50.050;8.690;2023-12-20T12:57:17;4.80;99.90
22908;DHT22;11620;50.050;8.690;2023-12-20T13:00:03;4.90;99.90
22908;DHT22;11620;50.050;8.690;2023-12-20T13:02:50;4.90;99.90
22908;DHT22;11620;50.050;8.690;2023-12-20T13:05:37;5.00;99.90
22908;DHT22;11620;50.050;8.690;2023-12-20T13:08:24;5.10;99.90
22908;DHT22;11620;50.050;8.690;2023-12-20T13:11:10;5.10;99.90
22908;DHT22;11620;50.050;8.690;2023-12-20T13:13:57;5.10;99.90
22908;DHT22;11620;50.050;8.690;2023-12-20T13:16:43;5.20;99.90
22908;DHT22;11620;50.050;8.690;2023-12-20T13:19:31;5.20;99.90
22908;DHT22;11620;50.050;8.690;2023-12-20T13:22:18;5.00;99.90
22908;DHT22;11620;50.050;8.690;2023-12-20T13:25:05;5.00;99.90
22908;DHT22;11620;50.050;8.690;2023-12-20T13:27:51;5.10;99.90
22908;DHT22;11620;50.050;8.690;2023-12-20T13:30:38;5.00;99.90
22908;DHT22;11620;50.050;8.690;2023-12-20T13:33:25;5.10;99.90
22908;DHT22;11620;50.050;8.690;2023-12-20T13:36:11;5.00;99.90
22908;DHT22;11620;50.050;8.690;2023-12-20T13:38:58;4.90;99.90
22908;DHT22;11620;50.050;8.690;2023-12-20T13:41:44;5.00;99.90
22908;DHT22;11620;50.050;8.690;2023-12-20T13:44:30;5.00;99.90
22908;DHT22;11620;50.050;8.690;2023-12-20T13:47:17;4.90;99.90
22908;DHT22;11620;50.050;8.690;2023-12-20T13:50:03;4.90;99.90
22908;DHT22;11620;50.050;8.690;2023-12-20T13:52:50;4.90;99.90
22908;DHT22;11620;50.050;8.690;2023-12-20T13:55:36;5.00;99.90
22908;DHT22;11620;50.050;8.690;2023-12-20T13:58:22;5.00;99.90
22908;DHT22;11620;50.050;8.690;2023-12-20T14:01:10;4.90;99.90
22908;DHT22;11620;50.050;8.690;2023-12-20T14:03:57;4.90;99.90
22908;DHT22;11620;50.050;8.690;2023-12-20T14:06:43;4.90;99.90
22908;DHT22;11620;50.050;8.690;2023-12-20T14:09:29;5.00;99.90
22908;DHT22;11620;50.050;8.690;2023-12-20T14:12:16;4.90;99.90
22908;DHT22;11620;50.050;8.690;2023-12-20T14:15:02;5.00;99.90
22908;DHT22;11620;50.050;8.690;2023-12-20T14:17:48;5.00;99.90
22908;DHT22;11620;50.050;8.690;2023-12-20T14:20:35;5.00;99.90
22908;DHT22;11620;50.050;8.690;2023-12-20T14:23:21;5.00;99.90
22908;DHT22;11620;50.050;8.690;2023-12-20T14:26:09;4.90;99.90
22908;DHT22;11620;50.050;8.690;2023-12-20T14:29:00;4.90;99.90
22908;DHT22;11620;50.050;8.690;2023-12-20T14:31:46;4.90;99.90
22908;DHT22;11620;50.050;8.690;2023-12-20T14:34:33;5.00;99.90
22908;DHT22;11620;50.050;8.690;2023-12-20T14:37:19;4.80;99.90
22908;DHT22;11620;50.050;8.690;2023-12-20T14:40:09;4.90;99.90
22908;DHT22;11620;50.050;8.690;2023-12-20T14:43:04;4.80;99.90
22908;DHT22;11620;50.050;8.690;2023-12-20T14:45:50;4.80;99.90
22908;DHT22;11620;50.050;8.690;2023-12-20T14:48:37;4.90;99.90
22908;DHT22;11620;50.050;8.690;2023-12-20T14:51:23;4.80;99.90
22908;DHT22;11620;50.050;8.690;2023-12-20T14:54:10;4.90;99.90
22908;DHT22;11620;50.050;8.690;2023-12-20T14:56:59;4.80;99.90
22908;DHT22;11620;50.050;8.690;2023-12-20T14:59:45;4.80;99.90
22908;DHT22;11620;50.050;8.690;2023-12-20T15:02:31;4.80;99.90
22908;DHT22;11620;50.050;8.690;2023-12-20T15:05:18;4.70;99.90
22908;DHT22;11620;50.050;8.690;2023-12-20T15:08:05;4.80;99.90
22908;DHT22;11620;50.050;8.690;2023-12-20T15:10:51;4.80;99.90
22908;DHT22;11620;50.050;8.690;2023-12-20T15:13:37;4.90;99.90
22908;DHT22;11620;50.050;8.690;2023-12-20T15:16:24;4.90;99.90
22908;DHT22;11620;50.050;8.690;2023-12-20T15:19:11;4.70;99.90
22908;DHT22;11620;50.050;8.690;2023-12-20T15:21:58;4.70;99.90
22908;DHT22;11620;50.050;8.690;2023-12-20T15:24:46;4.70;99.90
22908;DHT22;11620;50.050;8.690;2023-12-20T15:27:33;4.80;99.90
22908;DHT22;11620;50.050;8.690;2023-12-20T15:30:21;4.70;99.90
22908;DHT22;11620;50.050;8.690;2023-12-20T15:33:09;4.70;99.90
22908;DHT22;11620;50.050;8.690;2023-12-20T15:35:55;4.60;99.90
22908;DHT22;11620;50.050;8.690;2023-12-20T15:38:42;4.70;99.90
22908;DHT22;11620;50.050;8.690;2023-12-20T15:41:28;4.60;99.90
22908;DHT22;11620;50.050;8.690;2023-12-20T15:44:15;4.60;99.90
22908;DHT22;11620;50.050;8.690;2023-12-20T15:47:01;4.70;99.90
22908;DHT22;11620;50.050;8.690;2023-12-20T15:49:48;4.60;99.90
22908;DHT22;11620;50.050;8.690;2023-12-20T15:52:35;4.60;99.90
22908;DHT22;11620;50.050;8.690;2023-12-20T15:55:22;4.50;99.90
22908;DHT22;11620;50.050;8.690;2023-12-20T15:58:09;4.50;99.90
22908;DHT22;11620;50.050;8.690;2023-12-20T16:00:55;4.40;99.90
22908;DHT22;11620;50.050;8.690;2023-12-20T16:03:41;4.50;99.90
22908;DHT22;11620;50.050;8.690;2023-12-20T16:06:28;4.40;99.90
22908;DHT22;11620;50.050;8.690;2023-12-20T16:09:15;4.50;99.90
22908;DHT22;11620;50.050;8.690;2023-12-20T16:12:01;4.40;99.90
22908;DHT22;11620;50.050;8.690;2023-12-20T16:14:48;4.40;99.90
22908;DHT22;11620;50.050;8.690;2023-12-20T16:17:34;4.40;99.90
22908;DHT22;11620;50.050;8.690;2023-12-20T16:20:22;4.30;99.90
22908;DHT22;11620;50.050;8.690;2023-12-20T16:23:09;4.30;99.90
22908;DHT22;11620;50.050;8.690;2023-12-20T16:25:56;4.40;99.90
22908;DHT22;11620;50.050;8.690;2023-12-20T16:28:43;4.40;99.90
22908;DHT22;11620;50.050;8.690;2023-12-20T16:31:30;4.30;99.90
22908;DHT22;11620;50.050;8.690;2023-12-20T16:34:16;4.40;99.90
22908;DHT22;11620;50.050;8.690;2023-12-20T16:37:02;4.30;99.90
22908;DHT22;11620;50.050;8.690;2023-12-20T16:39:49;4.30;99.90
22908;DHT22;11620;50.050;8.690;2023-12-20T16:42:35;4.40;99.90
22908;DHT22;11620;50.050;8.690;2023-12-20T16:45:22;4.40;99.90
22908;DHT22;11620;50.050;8.690;2023-12-20T16:48:09;4.40;99.90
22908;DHT22;11620;50.050;8.690;2023-12-20T16:50:55;4.30;99.90
22908;DHT22;11620;50.050;8.690;2023-12-20T16:53:41;4.30;99.90
22908;DHT22;11620;50.050;8.690;2023-12-20T16:56:28;4.30;99.90
22908;DHT22;11620;50.050;8.690;2023-12-20T16:59:14;4.40;99.90
22908;DHT22;11620;50.050;8.690;2023-12-20T17:02:00;4.40;99.90
22908;DHT22;11620;50.050;8.690;2023-12-20T17:04:50;4.40;99.90
22908;DHT22;11620;50.050;8.690;2023-12-20T17:07:36;4.40;99.90
22908;DHT22;11620;50.050;8.690;2023-12-20T17:10:22;4.40;99.90
22908;DHT22;11620;50.050;8.690;2023-12-20T17:13:09;4.50;99.90
22908;DHT22;11620;50.050;8.690;2023-12-20T17:15:55;4.40;99.90
22908;DHT22;11620;50.050;8.690;2023-12-20T17:18:22;4.40;99.90
22908;DHT22;11620;50.050;8.690;2023-12-20T17:20:51;4.40;99.90
22908;DHT22;11620;50.050;8.690;2023-12-20T17:23:17;4.50;99.90
22908;DHT22;11620;50.050;8.690;2023-12-20T17:25:43;4.40;99.90
22908;DHT22;11620;50.050;8.690;2023-12-20T17:28:09;4.30;99.90
22908;DHT22;11620;50.050;8.690;2023-12-20T17:30:35;4.30;99.90
22908;DHT22;11620;50.050;8.690;2023-12-20T17:33:01;4.40;99.90
22908;DHT22;11620;50.050;8.690;2023-12-20T17:35:29;4.30;99.90
22908;DHT22;11620;50.050;8.690;2023-12-20T17:37:55;4.40;99.90
22908;DHT22;11620;50.050;8.690;2023-12-20T17:40:21;4.40;99.90
22908;DHT22;11620;50.050;8.690;2023-12-20T17:42:47;4.40;99.90
22908;DHT22;11620;50.050;8.690;2023-12-20T17:45:14;4.40;99.90